sensor_id;sensor_type;location;lat;lon;timestamp;pressure;altitude;pressure_sealevel;temperature;humidity
36192;BME280;22233;42.708;23.360;2023-04-21T00:01:13;95023.59;;;12.28;64.79
36192;BME280;22233;42.708;23.360;2023-04-21T00:03:40;95023.72;;;12.32;64.70
36192;BME280;22233;42.708;23.360;2023-04-21T00:06:07;95016.88;;;12.26;64.41
36192;BME280;22233;42.708;23.360;2023-04-21T00:08:34;95023.13;;;12.26;64.35
36192;BME280;22233;42.708;23.360;2023-04-21T00:11:05;95013.69;;;12.24;63.64
36192;BME280;22233;42.708;23.360;2023-04-21T00:13:30;95027.50;;;12.18;64.23
36192;BME280;22233;42.708;23.360;2023-04-21T00:15:56;95017.06;;;12.21;64.28
36192;BME280;22233;42.708;23.360;2023-04-21T00:18:21;95021.59;;;12.16;63.70
36192;BME280;22233;42.708;23.360;2023-04-21T00:20:46;95020.13;;;11.68;64.85
36192;BME280;22233;42.708;23.360;2023-04-21T00:23:12;95010.41;;;11.88;64.11
36192;BME280;22233;42.708;23.360;2023-04-21T00:25:37;95027.72;;;11.84;64.29
36192;BME280;22233;42.708;23.360;2023-04-21T00:28:03;95025.88;;;11.75;64.56
36192;BME280;22233;42.708;23.360;2023-04-21T00:30:28;95023.25;;;11.79;63.40
36192;BME280;22233;42.708;23.360;2023-04-21T00:32:54;95009.16;;;11.26;64.71
36192;BME280;22233;42.708;23.360;2023-04-21T00:35:20;95019.44;;;11.50;65.06
36192;BME280;22233;42.708;23.360;2023-04-21T00:37:45;95011.19;;;11.38;64.16
36192;BME280;22233;42.708;23.360;2023-04-21T00:40:11;95022.31;;;11.15;65.50
36192;BME280;22233;42.708;23.360;2023-04-21T00:42:37;95025.56;;;11.00;65.82
36192;BME280;22233;42.708;23.360;2023-04-21T00:45:03;94995.16;;;10.51;65.66
36192;BME280;22233;42.708;23.360;2023-04-21T00:47:29;95027.75;;;10.59;65.83
36192;BME280;22233;42.708;23.360;2023-04-21T00:49:56;95014.50;;;10.49;67.11
36192;BME280;22233;42.708;23.360;2023-04-21T00:52:22;95029.84;;;10.36;66.69
36192;BME280;22233;42.708;23.360;2023-04-21T00:54:48;95013.22;;;10.29;67.26
36192;BME280;22233;42.708;23.360;2023-04-21T00:57:14;94996.13;;;10.20;67.28
36192;BME280;22233;42.708;23.360;2023-04-21T00:59:39;94984.00;;;10.00;67.22
36192;BME280;22233;42.708;23.360;2023-04-21T01:02:05;95013.69;;;10.14;67.70
36192;BME280;22233;42.708;23.360;2023-04-21T01:04:30;94995.63;;;9.92;67.75
36192;BME280;22233;42.708;23.360;2023-04-21T01:07:01;94997.72;;;9.77;67.98
36192;BME280;22233;42.708;23.360;2023-04-21T01:09:28;94991.97;;;9.79;68.21
36192;BME280;22233;42.708;23.360;2023-04-21T01:12:04;94997.25;;;10.02;67.09
36192;BME280;22233;42.708;23.360;2023-04-21T01:14:30;94986.88;;;9.95;66.75
36192;BME280;22233;42.708;23.360;2023-04-21T01:16:56;95009.06;;;10.14;67.41
36192;BME280;22233;42.708;23.360;2023-04-21T01:19:22;94980.81;;;10.07;66.26
36192;BME280;22233;42.708;23.360;2023-04-21T01:21:49;94998.22;;;10.32;66.62
36192;BME280;22233;42.708;23.360;2023-04-21T01:24:15;95010.50;;;10.29;67.39
36192;BME280;22233;42.708;23.360;2023-04-21T01:26:41;95009.06;;;10.49;66.47
36192;BME280;22233;42.708;23.360;2023-04-21T01:29:08;95011.63;;;10.11;66.67
36192;BME280;22233;42.708;23.360;2023-04-21T01:31:34;94996.13;;;9.85;68.20
36192;BME280;22233;42.708;23.360;2023-04-21T01:34:03;95002.69;;;9.93;67.34
36192;BME280;22233;42.708;23.360;2023-04-21T01:36:28;94991.19;;;9.78;67.77
36192;BME280;22233;42.708;23.360;2023-04-21T01:38:54;94999.63;;;9.86;68.00
36192;BME280;22233;42.708;23.360;2023-04-21T01:41:19;94997.72;;;9.95;67.48
36192;BME280;22233;42.708;23.360;2023-04-21T01:43:45;94998.84;;;9.85;67.44
36192;BME280;22233;42.708;23.360;2023-04-21T01:46:10;94987.66;;;9.87;67.74
36192;BME280;22233;42.708;23.360;2023-04-21T01:48:36;94993.41;;;9.85;67.30
36192;BME280;22233;42.708;23.360;2023-04-21T01:51:02;94987.03;;;9.81;67.42
36192;BME280;22233;42.708;23.360;2023-04-21T01:53:27;94985.25;;;9.50;68.74
36192;BME280;22233;42.708;23.360;2023-04-21T01:55:52;94984.97;;;9.78;68.01
36192;BME280;22233;42.708;23.360;2023-04-21T01:58:18;95000.91;;;9.79;67.74
36192;BME280;22233;42.708;23.360;2023-04-21T02:00:44;95003.94;;;9.78;68.03
36192;BME280;22233;42.708;23.360;2023-04-21T02:03:09;94985.94;;;10.08;66.99
36192;BME280;22233;42.708;23.360;2023-04-21T02:05:35;94980.50;;;9.91;66.15
36192;BME280;22233;42.708;23.360;2023-04-21T02:08:00;95000.44;;;10.04;67.10
36192;BME280;22233;42.708;23.360;2023-04-21T02:10:25;94995.97;;;9.90;67.43
36192;BME280;22233;42.708;23.360;2023-04-21T02:12:51;94999.66;;;9.94;67.13
36192;BME280;22233;42.708;23.360;2023-04-21T02:15:16;94999.00;;;9.97;67.27
36192;BME280;22233;42.708;23.360;2023-04-21T02:17:42;94986.22;;;9.80;67.49
36192;BME280;22233;42.708;23.360;2023-04-21T02:20:09;94991.97;;;10.05;67.06
36192;BME280;22233;42.708;23.360;2023-04-21T02:22:36;94986.53;;;10.14;66.75
36192;BME280;22233;42.708;23.360;2023-04-21T02:25:02;94991.66;;;10.15;66.19
36192;BME280;22233;42.708;23.360;2023-04-21T02:27:28;94982.09;;;10.09;67.02
36192;BME280;22233;42.708;23.360;2023-04-21T02:29:53;94995.84;;;10.30;65.82
36192;BME280;22233;42.708;23.360;2023-04-21T02:32:18;94977.59;;;10.13;66.60
36192;BME280;22233;42.708;23.360;2023-04-21T02:34:44;94988.47;;;10.13;65.50
36192;BME280;22233;42.708;23.360;2023-04-21T02:37:09;94986.25;;;10.07;65.41
36192;BME280;22233;42.708;23.360;2023-04-21T02:39:35;94991.34;;;9.82;66.24
36192;BME280;22233;42.708;23.360;2023-04-21T02:42:00;94974.75;;;9.75;66.45
36192;BME280;22233;42.708;23.360;2023-04-21T02:44:26;94995.78;;;9.69;66.06
36192;BME280;22233;42.708;23.360;2023-04-21T02:46:51;95002.38;;;9.94;66.86
36192;BME280;22233;42.708;23.360;2023-04-21T02:49:17;94993.72;;;9.75;66.50
36192;BME280;22233;42.708;23.360;2023-04-21T02:51:42;94994.31;;;9.46;68.33
36192;BME280;22233;42.708;23.360;2023-04-21T02:54:07;95001.50;;;9.50;68.15
36192;BME280;22233;42.708;23.360;2023-04-21T02:56:33;94995.56;;;9.39;68.08
36192;BME280;22233;42.708;23.360;2023-04-21T02:58:59;94994.66;;;9.53;68.30
36192;BME280;22233;42.708;23.360;2023-04-21T03:01:24;94995.47;;;9.71;67.77
36192;BME280;22233;42.708;23.360;2023-04-21T03:03:50;94995.31;;;9.67;67.91
36192;BME280;22233;42.708;23.360;2023-04-21T03:06:15;94988.44;;;9.52;67.97
36192;BME280;22233;42.708;23.360;2023-04-21T03:08:41;94992.75;;;9.71;67.16
36192;BME280;22233;42.708;23.360;2023-04-21T03:11:06;95004.56;;;9.66;67.73
36192;BME280;22233;42.708;23.360;2023-04-21T03:13:31;95004.25;;;9.85;68.04
36192;BME280;22233;42.708;23.360;2023-04-21T03:15:57;95007.13;;;9.97;67.01
36192;BME280;22233;42.708;23.360;2023-04-21T03:18:23;94998.38;;;10.00;67.55
36192;BME280;22233;42.708;23.360;2023-04-21T03:20:48;95010.16;;;9.87;67.50
36192;BME280;22233;42.708;23.360;2023-04-21T03:23:13;95005.38;;;9.93;66.54
36192;BME280;22233;42.708;23.360;2023-04-21T03:25:40;95002.69;;;9.93;66.87
36192;BME280;22233;42.708;23.360;2023-04-21T03:28:05;95000.28;;;9.91;68.02
36192;BME280;22233;42.708;23.360;2023-04-21T03:30:31;95008.59;;;10.12;67.14
36192;BME280;22233;42.708;23.360;2023-04-21T03:32:56;95008.75;;;10.07;67.13
36192;BME280;22233;42.708;23.360;2023-04-21T03:35:23;95007.63;;;9.99;67.04
36192;BME280;22233;42.708;23.360;2023-04-21T03:37:48;95006.66;;;10.22;66.89
36192;BME280;22233;42.708;23.360;2023-04-21T03:40:14;95004.94;;;10.08;66.42
36192;BME280;22233;42.708;23.360;2023-04-21T03:42:40;95018.16;;;10.10;66.93
36192;BME280;22233;42.708;23.360;2023-04-21T03:45:08;95016.88;;;10.16;65.90
36192;BME280;22233;42.708;23.360;2023-04-21T03:47:33;95022.72;;;9.66;68.37
36192;BME280;22233;42.708;23.360;2023-04-21T03:49:59;95014.16;;;9.72;67.90
36192;BME280;22233;42.708;23.360;2023-04-21T03:52:24;95013.38;;;9.23;69.59
36192;BME280;22233;42.708;23.360;2023-04-21T03:54:50;95001.50;;;9.68;68.99
36192;BME280;22233;42.708;23.360;2023-04-21T03:57:15;95018.63;;;9.86;67.91
36192;BME280;22233;42.708;23.360;2023-04-21T03:59:41;95008.72;;;9.90;68.32
36192;BME280;22233;42.708;23.360;2023-04-21T04:02:07;95015.75;;;10.26;67.09
36192;BME280;22233;42.708;23.360;2023-04-21T04:04:33;95023.59;;;10.27;66.21
36192;BME280;22233;42.708;23.360;2023-04-21T04:06:58;95016.75;;;10.30;66.75
36192;BME280;22233;42.708;23.360;2023-04-21T04:09:24;95033.19;;;10.33;67.32
36192;BME280;22233;42.708;23.360;2023-04-21T04:11:50;95029.34;;;10.52;65.73
36192;BME280;22233;42.708;23.360;2023-04-21T04:14:15;95025.97;;;10.64;66.35
36192;BME280;22233;42.708;23.360;2023-04-21T04:16:41;95043.66;;;10.87;65.63
36192;BME280;22233;42.708;23.360;2023-04-21T04:19:07;95024.38;;;10.71;65.77
36192;BME280;22233;42.708;23.360;2023-04-21T04:21:32;95032.53;;;10.54;65.61
36192;BME280;22233;42.708;23.360;2023-04-21T04:23:59;95048.81;;;10.71;66.40
36192;BME280;22233;42.708;23.360;2023-04-21T04:26:25;95045.00;;;10.64;66.67
36192;BME280;22233;42.708;23.360;2023-04-21T04:28:54;95042.53;;;10.88;65.81
36192;BME280;22233;42.708;23.360;2023-04-21T04:31:23;95062.50;;;10.92;65.66
36192;BME280;22233;42.708;23.360;2023-04-21T04:33:50;95043.13;;;11.11;65.89
36192;BME280;22233;42.708;23.360;2023-04-21T04:36:15;95046.69;;;10.86;65.54
36192;BME280;22233;42.708;23.360;2023-04-21T04:38:42;95063.84;;;10.69;65.49
36192;BME280;22233;42.708;23.360;2023-04-21T04:41:07;95066.25;;;10.62;66.50
36192;BME280;22233;42.708;23.360;2023-04-21T04:43:33;95063.19;;;10.72;66.19
36192;BME280;22233;42.708;23.360;2023-04-21T04:46:04;95061.41;;;10.76;66.14
36192;BME280;22233;42.708;23.360;2023-04-21T04:48:30;95068.31;;;10.73;66.42
36192;BME280;22233;42.708;23.360;2023-04-21T04:50:56;95068.78;;;10.75;66.78
36192;BME280;22233;42.708;23.360;2023-04-21T04:53:21;95072.09;;;10.90;67.39
36192;BME280;22233;42.708;23.360;2023-04-21T04:55:47;95072.91;;;10.82;66.67
36192;BME280;22233;42.708;23.360;2023-04-21T04:58:12;95075.66;;;10.64;66.81
36192;BME280;22233;42.708;23.360;2023-04-21T05:00:38;95052.81;;;10.65;66.76
36192;BME280;22233;42.708;23.360;2023-04-21T05:03:04;95081.09;;;10.38;67.62
36192;BME280;22233;42.708;23.360;2023-04-21T05:05:29;95065.44;;;10.61;68.29
36192;BME280;22233;42.708;23.360;2023-04-21T05:07:55;95065.16;;;10.36;67.44
36192;BME280;22233;42.708;23.360;2023-04-21T05:10:21;95052.06;;;10.38;67.20
36192;BME280;22233;42.708;23.360;2023-04-21T05:12:47;95078.72;;;10.36;68.45
36192;BME280;22233;42.708;23.360;2023-04-21T05:15:12;95077.06;;;10.88;68.05
36192;BME280;22233;42.708;23.360;2023-04-21T05:17:37;95075.19;;;10.71;67.92
36192;BME280;22233;42.708;23.360;2023-04-21T05:20:04;95077.56;;;10.72;67.64
36192;BME280;22233;42.708;23.360;2023-04-21T05:22:30;95065.28;;;10.75;67.23
36192;BME280;22233;42.708;23.360;2023-04-21T05:24:56;95064.13;;;10.85;67.92
36192;BME280;22233;42.708;23.360;2023-04-21T05:27:21;95073.03;;;11.03;67.45
36192;BME280;22233;42.708;23.360;2023-04-21T05:29:47;95062.66;;;10.96;67.30
36192;BME280;22233;42.708;23.360;2023-04-21T05:32:12;95070.84;;;11.34;67.93
36192;BME280;22233;42.708;23.360;2023-04-21T05:34:38;95059.25;;;11.55;68.22
36192;BME280;22233;42.708;23.360;2023-04-21T05:37:03;95070.97;;;11.76;67.96
36192;BME280;22233;42.708;23.360;2023-04-21T05:39:29;95081.56;;;12.29;68.04
36192;BME280;22233;42.708;23.360;2023-04-21T05:41:55;95079.31;;;12.10;63.64
36192;BME280;22233;42.708;23.360;2023-04-21T05:44:20;95080.13;;;12.52;62.26
36192;BME280;22233;42.708;23.360;2023-04-21T05:46:46;95064.63;;;12.23;63.03
36192;BME280;22233;42.708;23.360;2023-04-21T05:49:11;95064.38;;;12.37;62.09
36192;BME280;22233;42.708;23.360;2023-04-21T05:51:37;95066.31;;;12.15;64.10
36192;BME280;22233;42.708;23.360;2023-04-21T05:54:02;95054.59;;;12.15;64.27
36192;BME280;22233;42.708;23.360;2023-04-21T05:56:28;95065.69;;;12.52;61.81
36192;BME280;22233;42.708;23.360;2023-04-21T05:58:53;95070.41;;;12.43;62.04
36192;BME280;22233;42.708;23.360;2023-04-21T06:01:18;95044.84;;;12.56;60.59
36192;BME280;22233;42.708;23.360;2023-04-21T06:03:44;95057.63;;;12.76;60.41
36192;BME280;22233;42.708;23.360;2023-04-21T06:06:09;95043.81;;;12.61;60.77
36192;BME280;22233;42.708;23.360;2023-04-21T06:08:35;95060.09;;;12.69;60.25
36192;BME280;22233;42.708;23.360;2023-04-21T06:11:01;95049.28;;;12.61;60.22
36192;BME280;22233;42.708;23.360;2023-04-21T06:13:26;95054.72;;;12.94;59.75
36192;BME280;22233;42.708;23.360;2023-04-21T06:15:53;95050.41;;;12.93;59.32
36192;BME280;22233;42.708;23.360;2023-04-21T06:18:18;95054.28;;;12.92;59.53
36192;BME280;22233;42.708;23.360;2023-04-21T06:20:51;95050.22;;;12.77;60.37
36192;BME280;22233;42.708;23.360;2023-04-21T06:23:16;95044.78;;;13.10;59.83
36192;BME280;22233;42.708;23.360;2023-04-21T06:25:42;95061.72;;;12.83;61.30
36192;BME280;22233;42.708;23.360;2023-04-21T06:28:07;95052.47;;;12.96;59.88
36192;BME280;22233;42.708;23.360;2023-04-21T06:30:32;95062.06;;;13.14;59.69
36192;BME280;22233;42.708;23.360;2023-04-21T06:32:58;95062.97;;;13.18;59.55
36192;BME280;22233;42.708;23.360;2023-04-21T06:35:23;95055.13;;;13.17;60.40
36192;BME280;22233;42.708;23.360;2023-04-21T06:37:49;95049.31;;;13.06;60.37
36192;BME280;22233;42.708;23.360;2023-04-21T06:40:14;95051.69;;;13.08;60.65
36192;BME280;22233;42.708;23.360;2023-04-21T06:42:42;95048.03;;;13.04;60.92
36192;BME280;22233;42.708;23.360;2023-04-21T06:45:08;95045.63;;;13.35;60.68
36192;BME280;22233;42.708;23.360;2023-04-21T06:47:34;95048.34;;;13.48;60.72
36192;BME280;22233;42.708;23.360;2023-04-21T06:49:59;95045.28;;;13.86;59.38
36192;BME280;22233;42.708;23.360;2023-04-21T06:52:25;95046.88;;;13.87;58.24
36192;BME280;22233;42.708;23.360;2023-04-21T06:54:50;95040.63;;;13.87;58.96
36192;BME280;22233;42.708;23.360;2023-04-21T06:57:16;95041.19;;;13.80;59.24
36192;BME280;22233;42.708;23.360;2023-04-21T06:59:42;95038.56;;;13.96;58.72
36192;BME280;22233;42.708;23.360;2023-04-21T07:02:07;95053.56;;;14.02;58.00
36192;BME280;22233;42.708;23.360;2023-04-21T07:04:33;95038.25;;;13.73;59.12
36192;BME280;22233;42.708;23.360;2023-04-21T07:06:58;95036.41;;;13.89;58.77
36192;BME280;22233;42.708;23.360;2023-04-21T07:09:24;95032.22;;;13.67;59.76
36192;BME280;22233;42.708;23.360;2023-04-21T07:11:49;95037.78;;;13.95;59.17
36192;BME280;22233;42.708;23.360;2023-04-21T07:14:15;95034.81;;;13.88;58.59
36192;BME280;22233;42.708;23.360;2023-04-21T07:16:40;95027.56;;;13.68;59.47
36192;BME280;22233;42.708;23.360;2023-04-21T07:19:06;95041.31;;;13.84;59.25
36192;BME280;22233;42.708;23.360;2023-04-21T07:21:31;95050.66;;;13.83;59.71
36192;BME280;22233;42.708;23.360;2023-04-21T07:24:00;95031.38;;;14.04;58.34
36192;BME280;22233;42.708;23.360;2023-04-21T07:26:26;95027.16;;;14.18;57.61
36192;BME280;22233;42.708;23.360;2023-04-21T07:28:51;95048.91;;;14.15;58.13
36192;BME280;22233;42.708;23.360;2023-04-21T07:31:17;95041.72;;;14.10;57.61
36192;BME280;22233;42.708;23.360;2023-04-21T07:33:42;95030.06;;;13.73;58.37
36192;BME280;22233;42.708;23.360;2023-04-21T07:36:08;95036.75;;;14.00;58.28
36192;BME280;22233;42.708;23.360;2023-04-21T07:38:33;95041.16;;;14.17;57.27
36192;BME280;22233;42.708;23.360;2023-04-21T07:40:59;95007.91;;;14.27;57.86
36192;BME280;22233;42.708;23.360;2023-04-21T07:43:25;95041.09;;;14.42;57.15
36192;BME280;22233;42.708;23.360;2023-04-21T07:45:51;95041.53;;;14.44;56.51
36192;BME280;22233;42.708;23.360;2023-04-21T07:48:17;95032.84;;;14.66;56.54
36192;BME280;22233;42.708;23.360;2023-04-21T07:50:42;95041.19;;;14.57;56.11
36192;BME280;22233;42.708;23.360;2023-04-21T07:53:08;95049.50;;;14.89;55.72
36192;BME280;22233;42.708;23.360;2023-04-21T07:55:33;95036.41;;;14.83;56.37
36192;BME280;22233;42.708;23.360;2023-04-21T07:58:02;95043.78;;;15.10;55.37
36192;BME280;22233;42.708;23.360;2023-04-21T08:00:27;95033.66;;;14.83;56.41
36192;BME280;22233;42.708;23.360;2023-04-21T08:02:53;95039.28;;;15.02;55.66
36192;BME280;22233;42.708;23.360;2023-04-21T08:05:18;95033.09;;;15.21;54.83
36192;BME280;22233;42.708;23.360;2023-04-21T08:07:44;95049.81;;;15.48;54.36
36192;BME280;22233;42.708;23.360;2023-04-21T08:10:09;95025.28;;;15.20;54.56
36192;BME280;22233;42.708;23.360;2023-04-21T08:12:35;95038.44;;;15.46;54.23
36192;BME280;22233;42.708;23.360;2023-04-21T08:15:00;95037.56;;;15.57;54.13
36192;BME280;22233;42.708;23.360;2023-04-21T08:17:30;95042.75;;;15.63;53.51
36192;BME280;22233;42.708;23.360;2023-04-21T08:19:55;95020.75;;;15.59;54.03
36192;BME280;22233;42.708;23.360;2023-04-21T08:22:20;95036.41;;;15.74;54.73
36192;BME280;22233;42.708;23.360;2023-04-21T08:24:47;95027.66;;;15.53;53.36
36192;BME280;22233;42.708;23.360;2023-04-21T08:27:12;95033.84;;;15.82;53.75
36192;BME280;22233;42.708;23.360;2023-04-21T08:29:38;95025.84;;;16.08;52.53
36192;BME280;22233;42.708;23.360;2023-04-21T08:32:03;95033.22;;;15.88;52.70
36192;BME280;22233;42.708;23.360;2023-04-21T08:34:29;95033.75;;;15.62;53.99
36192;BME280;22233;42.708;23.360;2023-04-21T08:36:54;95026.75;;;15.65;53.89
36192;BME280;22233;42.708;23.360;2023-04-21T08:39:20;95026.34;;;15.78;53.52
36192;BME280;22233;42.708;23.360;2023-04-21T08:41:46;95033.22;;;16.24;52.19
36192;BME280;22233;42.708;23.360;2023-04-21T08:44:12;95020.72;;;16.07;52.49
36192;BME280;22233;42.708;23.360;2023-04-21T08:46:38;95021.38;;;16.20;52.03
36192;BME280;22233;42.708;23.360;2023-04-21T08:49:04;95026.47;;;16.02;51.52
36192;BME280;22233;42.708;23.360;2023-04-21T08:51:30;95012.19;;;15.92;52.72
36192;BME280;22233;42.708;23.360;2023-04-21T08:53:56;95031.34;;;16.28;51.45
36192;BME280;22233;42.708;23.360;2023-04-21T08:56:25;95021.06;;;16.41;51.69
36192;BME280;22233;42.708;23.360;2023-04-21T08:58:51;95005.09;;;16.66;51.15
36192;BME280;22233;42.708;23.360;2023-04-21T09:01:17;95009.78;;;16.65;50.67
36192;BME280;22233;42.708;23.360;2023-04-21T09:03:43;95012.13;;;16.83;50.68
36192;BME280;22233;42.708;23.360;2023-04-21T09:06:09;94989.47;;;16.66;50.22
36192;BME280;22233;42.708;23.360;2023-04-21T09:08:42;95030.16;;;17.03;48.67
36192;BME280;22233;42.708;23.360;2023-04-21T09:11:12;95009.50;;;16.90;49.82
36192;BME280;22233;42.708;23.360;2023-04-21T09:13:38;95009.16;;;16.91;50.44
36192;BME280;22233;42.708;23.360;2023-04-21T09:16:13;95004.44;;;16.92;50.47
36192;BME280;22233;42.708;23.360;2023-04-21T09:18:40;95001.06;;;16.79;49.75
36192;BME280;22233;42.708;23.360;2023-04-21T09:21:16;94991.75;;;16.84;49.91
36192;BME280;22233;42.708;23.360;2023-04-21T09:26:12;94989.03;;;16.84;50.76
36192;BME280;22233;42.708;23.360;2023-04-21T09:28:44;94994.22;;;16.89;50.34
36192;BME280;22233;42.708;23.360;2023-04-21T09:31:14;94997.81;;;16.93;49.37
36192;BME280;22233;42.708;23.360;2023-04-21T09:33:48;94980.25;;;16.78;49.54
36192;BME280;22233;42.708;23.360;2023-04-21T09:36:20;94981.81;;;17.41;49.52
36192;BME280;22233;42.708;23.360;2023-04-21T09:38:57;94979.91;;;17.45;48.22
36192;BME280;22233;42.708;23.360;2023-04-21T09:41:23;94977.28;;;17.79;47.60
36192;BME280;22233;42.708;23.360;2023-04-21T09:43:49;94977.19;;;17.72;47.68
36192;BME280;22233;42.708;23.360;2023-04-21T09:46:16;94967.66;;;17.66;47.18
36192;BME280;22233;42.708;23.360;2023-04-21T09:48:44;94965.13;;;17.53;47.42
36192;BME280;22233;42.708;23.360;2023-04-21T09:51:14;94957.59;;;17.47;47.36
36192;BME280;22233;42.708;23.360;2023-04-21T09:53:40;94958.94;;;17.60;47.05
36192;BME280;22233;42.708;23.360;2023-04-21T09:56:15;94956.84;;;17.76;47.54
36192;BME280;22233;42.708;23.360;2023-04-21T09:58:54;94955.13;;;17.65;46.85
36192;BME280;22233;42.708;23.360;2023-04-21T10:01:23;94961.84;;;17.44;47.70
36192;BME280;22233;42.708;23.360;2023-04-21T10:03:51;94948.94;;;17.48;47.37
36192;BME280;22233;42.708;23.360;2023-04-21T10:06:17;94957.38;;;17.36;46.21
36192;BME280;22233;42.708;23.360;2023-04-21T10:08:44;94951.59;;;17.41;46.27
36192;BME280;22233;42.708;23.360;2023-04-21T10:11:10;94969.56;;;17.62;47.16
36192;BME280;22233;42.708;23.360;2023-04-21T10:13:36;94964.06;;;17.35;47.78
36192;BME280;22233;42.708;23.360;2023-04-21T10:16:05;94954.75;;;16.54;48.97
36192;BME280;22233;42.708;23.360;2023-04-21T10:18:35;94967.34;;;16.78;48.84
36192;BME280;22233;42.708;23.360;2023-04-21T10:21:10;94969.72;;;17.00;47.40
36192;BME280;22233;42.708;23.360;2023-04-21T10:26:25;94939.28;;;16.66;47.97
36192;BME280;22233;42.708;23.360;2023-04-21T10:28:58;94959.69;;;16.88;48.93
36192;BME280;22233;42.708;23.360;2023-04-21T10:31:38;94942.09;;;17.35;48.42
36192;BME280;22233;42.708;23.360;2023-04-21T10:34:14;94943.66;;;17.86;47.67
36192;BME280;22233;42.708;23.360;2023-04-21T10:41:54;94942.38;;;17.53;47.60
36192;BME280;22233;42.708;23.360;2023-04-21T10:44:22;94938.34;;;18.00;47.39
36192;BME280;22233;42.708;23.360;2023-04-21T10:46:50;94942.72;;;18.05;46.22
36192;BME280;22233;42.708;23.360;2023-04-21T10:54:23;94945.22;;;17.60;44.87
36192;BME280;22233;42.708;23.360;2023-04-21T10:56:56;94954.78;;;17.96;43.79
36192;BME280;22233;42.708;23.360;2023-04-21T10:59:23;94941.25;;;18.11;44.32
36192;BME280;22233;42.708;23.360;2023-04-21T11:01:50;94938.09;;;18.39;43.46
36192;BME280;22233;42.708;23.360;2023-04-21T11:04:17;94948.53;;;18.60;45.85
36192;BME280;22233;42.708;23.360;2023-04-21T11:07:04;94920.94;;;18.87;47.08
36192;BME280;22233;42.708;23.360;2023-04-21T11:09:29;94944.91;;;18.86;45.46
36192;BME280;22233;42.708;23.360;2023-04-21T11:11:58;94942.72;;;18.69;45.80
36192;BME280;22233;42.708;23.360;2023-04-21T11:14:24;94935.97;;;18.96;46.40
36192;BME280;22233;42.708;23.360;2023-04-21T11:16:49;94945.13;;;19.08;46.84
36192;BME280;22233;42.708;23.360;2023-04-21T11:19:15;94939.00;;;19.29;47.53
36192;BME280;22233;42.708;23.360;2023-04-21T11:21:40;94941.91;;;19.47;46.18
36192;BME280;22233;42.708;23.360;2023-04-21T11:24:07;94931.66;;;19.44;45.52
36192;BME280;22233;42.708;23.360;2023-04-21T11:26:36;94924.50;;;19.35;44.96
36192;BME280;22233;42.708;23.360;2023-04-21T11:29:08;94930.06;;;19.43;45.16
36192;BME280;22233;42.708;23.360;2023-04-21T11:31:35;94924.09;;;19.30;45.35
36192;BME280;22233;42.708;23.360;2023-04-21T11:34:01;94948.19;;;19.47;45.95
36192;BME280;22233;42.708;23.360;2023-04-21T11:36:32;94947.91;;;19.60;46.50
36192;BME280;22233;42.708;23.360;2023-04-21T11:38:57;94946.44;;;19.25;45.89
36192;BME280;22233;42.708;23.360;2023-04-21T11:41:24;94950.44;;;18.90;46.47
36192;BME280;22233;42.708;23.360;2023-04-21T11:43:50;94944.59;;;18.95;46.70
36192;BME280;22233;42.708;23.360;2023-04-21T11:46:23;94950.09;;;18.61;47.44
36192;BME280;22233;42.708;23.360;2023-04-21T11:49:05;94944.63;;;18.99;46.83
36192;BME280;22233;42.708;23.360;2023-04-21T11:51:41;94931.00;;;19.13;46.34
36192;BME280;22233;42.708;23.360;2023-04-21T11:54:12;94949.94;;;19.18;43.32
36192;BME280;22233;42.708;23.360;2023-04-21T11:56:45;94937.44;;;19.31;42.46
36192;BME280;22233;42.708;23.360;2023-04-21T11:59:15;94935.50;;;19.32;41.58
36192;BME280;22233;42.708;23.360;2023-04-21T12:01:50;94943.09;;;19.46;41.66
36192;BME280;22233;42.708;23.360;2023-04-21T12:04:21;94938.72;;;19.41;41.88
36192;BME280;22233;42.708;23.360;2023-04-21T12:06:58;94943.19;;;19.12;41.72
36192;BME280;22233;42.708;23.360;2023-04-21T12:09:24;94934.91;;;19.08;42.45
36192;BME280;22233;42.708;23.360;2023-04-21T12:11:52;94940.94;;;18.50;42.83
36192;BME280;22233;42.708;23.360;2023-04-21T12:14:18;94942.31;;;18.33;42.68
36192;BME280;22233;42.708;23.360;2023-04-21T12:16:56;94944.69;;;18.34;42.52
36192;BME280;22233;42.708;23.360;2023-04-21T12:19:38;94947.72;;;18.26;43.53
36192;BME280;22233;42.708;23.360;2023-04-21T12:22:11;94937.88;;;18.21;43.34
36192;BME280;22233;42.708;23.360;2023-04-21T12:24:38;94947.84;;;18.36;44.12
36192;BME280;22233;42.708;23.360;2023-04-21T12:27:04;94942.72;;;18.35;43.00
36192;BME280;22233;42.708;23.360;2023-04-21T12:29:30;94944.06;;;18.48;43.05
36192;BME280;22233;42.708;23.360;2023-04-21T12:31:56;94945.69;;;18.53;42.94
36192;BME280;22233;42.708;23.360;2023-04-21T12:34:21;94939.34;;;18.49;43.35
36192;BME280;22233;42.708;23.360;2023-04-21T12:36:47;94935.91;;;18.55;42.99
36192;BME280;22233;42.708;23.360;2023-04-21T12:39:12;94947.03;;;18.66;43.23
36192;BME280;22233;42.708;23.360;2023-04-21T12:41:39;94939.88;;;18.58;43.27
36192;BME280;22233;42.708;23.360;2023-04-21T12:44:05;94934.81;;;18.30;43.80
36192;BME280;22233;42.708;23.360;2023-04-21T12:46:30;94944.53;;;18.88;43.27
36192;BME280;22233;42.708;23.360;2023-04-21T12:48:56;94936.41;;;19.02;43.05
36192;BME280;22233;42.708;23.360;2023-04-21T12:51:21;94939.94;;;19.47;41.85
36192;BME280;22233;42.708;23.360;2023-04-21T12:53:48;94938.19;;;19.25;42.49
36192;BME280;22233;42.708;23.360;2023-04-21T12:56:13;94939.38;;;19.27;42.65
36192;BME280;22233;42.708;23.360;2023-04-21T12:58:39;94931.53;;;18.85;41.67
36192;BME280;22233;42.708;23.360;2023-04-21T13:01:04;94938.03;;;18.73;41.13
36192;BME280;22233;42.708;23.360;2023-04-21T13:03:30;94929.94;;;18.84;40.60
36192;BME280;22233;42.708;23.360;2023-04-21T13:05:56;94939.50;;;18.93;41.20